sensor_id;sensor_type;location;lat;lon;timestamp;temperature;humidity
14359;DHT22;7263;49.418;11.064;2022-11-06T00:03:12;5.10;99.90
14359;DHT22;7263;49.418;11.064;2022-11-06T00:05:41;5.10;99.90
14359;DHT22;7263;49.418;11.064;2022-11-06T00:08:31;4.80;99.90
14359;DHT22;7263;49.418;11.064;2022-11-06T00:13:25;4.80;99.90
14359;DHT22;7263;49.418;11.064;2022-11-06T00:15:52;4.80;99.90
14359;DHT22;7263;49.418;11.064;2022-11-06T00:20:47;4.70;99.90
14359;DHT22;7263;49.418;11.064;2022-11-06T00:35:30;4.40;99.90
14359;DHT22;7263;49.418;11.064;2022-11-06T00:37:59;4.40;99.90
14359;DHT22;7263;49.418;11.064;2022-11-06T00:42:54;4.30;99.90
14359;DHT22;7263;49.418;11.064;2022-11-06T00:50:15;4.20;99.90
14359;DHT22;7263;49.418;11.064;2022-11-06T00:52:43;4.10;99.90
14359;DHT22;7263;49.418;11.064;2022-11-06T00:55:12;4.00;99.90
14359;DHT22;7263;49.418;11.064;2022-11-06T00:57:39;4.00;99.90
14359;DHT22;7263;49.418;11.064;2022-11-06T01:00:07;4.00;99.90
14359;DHT22;7263;49.418;11.064;2022-11-06T01:09:57;3.90;99.90
14359;DHT22;7263;49.418;11.064;2022-11-06T01:12:25;3.80;99.90
14359;DHT22;7263;49.418;11.064;2022-11-06T01:19:46;3.70;99.90
14359;DHT22;7263;49.418;11.064;2022-11-06T01:24:41;3.60;99.90
14359;DHT22;7263;49.418;11.064;2022-11-06T01:27:08;3.60;99.90
14359;DHT22;7263;49.418;11.064;2022-11-06T01:29:37;3.80;99.90
14359;DHT22;7263;49.418;11.064;2022-11-06T01:32:04;4.00;99.90
14359;DHT22;7263;49.418;11.064;2022-11-06T01:41:53;4.00;99.90
14359;DHT22;7263;49.418;11.064;2022-11-06T01:47:37;3.90;99.90
14359;DHT22;7263;49.418;11.064;2022-11-06T01:50:07;3.80;99.90
14359;DHT22;7263;49.418;11.064;2022-11-06T01:52:34;3.80;99.90
14359;DHT22;7263;49.418;11.064;2022-11-06T01:55:06;3.70;99.90
14359;DHT22;7263;49.418;11.064;2022-11-06T02:00:04;3.70;99.90
14359;DHT22;7263;49.418;11.064;2022-11-06T02:02:31;3.70;99.90
14359;DHT22;7263;49.418;11.064;2022-11-06T02:04:59;3.60;99.90
14359;DHT22;7263;49.418;11.064;2022-11-06T02:07:26;3.60;99.90
14359;DHT22;7263;49.418;11.064;2022-11-06T02:09:53;3.70;99.90
14359;DHT22;7263;49.418;11.064;2022-11-06T02:15:16;3.70;99.90
14359;DHT22;7263;49.418;11.064;2022-11-06T02:17:55;3.60;99.90
14359;DHT22;7263;49.418;11.064;2022-11-06T02:20:27;3.60;99.90
14359;DHT22;7263;49.418;11.064;2022-11-06T02:26:04;3.60;99.90
14359;DHT22;7263;49.418;11.064;2022-11-06T02:28:36;3.50;99.90
14359;DHT22;7263;49.418;11.064;2022-11-06T02:31:13;3.40;99.90
14359;DHT22;7263;49.418;11.064;2022-11-06T02:33:44;3.50;99.90
14359;DHT22;7263;49.418;11.064;2022-11-06T02:36:15;3.50;99.90
14359;DHT22;7263;49.418;11.064;2022-11-06T02:38:48;3.50;99.90
14359;DHT22;7263;49.418;11.064;2022-11-06T02:41:19;3.40;99.90
14359;DHT22;7263;49.418;11.064;2022-11-06T02:43:49;3.50;99.90
14359;DHT22;7263;49.418;11.064;2022-11-06T02:46:20;3.60;99.90
14359;DHT22;7263;49.418;11.064;2022-11-06T02:48:52;3.60;99.90
14359;DHT22;7263;49.418;11.064;2022-11-06T02:51:23;3.50;99.90
14359;DHT22;7263;49.418;11.064;2022-11-06T02:53:51;3.50;99.90
14359;DHT22;7263;49.418;11.064;2022-11-06T02:56:22;3.40;99.90
14359;DHT22;7263;49.418;11.064;2022-11-06T02:58:53;3.30;99.90
14359;DHT22;7263;49.418;11.064;2022-11-06T03:01:29;3.30;99.90
14359;DHT22;7263;49.418;11.064;2022-11-06T03:03:59;3.20;99.90
14359;DHT22;7263;49.418;11.064;2022-11-06T03:06:32;3.30;99.90
14359;DHT22;7263;49.418;11.064;2022-11-06T03:09:03;3.30;99.90
14359;DHT22;7263;49.418;11.064;2022-11-06T03:11:33;3.30;99.90
14359;DHT22;7263;49.418;11.064;2022-11-06T03:14:07;3.30;99.90
14359;DHT22;7263;49.418;11.064;2022-11-06T03:16:41;3.20;99.90
14359;DHT22;7263;49.418;11.064;2022-11-06T03:19:14;3.20;99.90
14359;DHT22;7263;49.418;11.064;2022-11-06T03:21:53;3.10;99.90
14359;DHT22;7263;49.418;11.064;2022-11-06T03:24:28;3.10;99.90
14359;DHT22;7263;49.418;11.064;2022-11-06T03:26:58;3.00;99.90
14359;DHT22;7263;49.418;11.064;2022-11-06T03:29:33;3.00;99.90
14359;DHT22;7263;49.418;11.064;2022-11-06T03:32:08;3.00;99.90
14359;DHT22;7263;49.418;11.064;2022-11-06T03:34:41;3.10;99.90
14359;DHT22;7263;49.418;11.064;2022-11-06T03:37:15;2.90;99.90
14359;DHT22;7263;49.418;11.064;2022-11-06T03:39:45;2.70;99.90
14359;DHT22;7263;49.418;11.064;2022-11-06T03:42:14;2.60;99.90
14359;DHT22;7263;49.418;11.064;2022-11-06T03:44:47;2.60;99.90
14359;DHT22;7263;49.418;11.064;2022-11-06T03:47:19;2.50;99.90
14359;DHT22;7263;49.418;11.064;2022-11-06T03:49:52;2.40;99.90
14359;DHT22;7263;49.418;11.064;2022-11-06T03:52:26;2.40;99.90
14359;DHT22;7263;49.418;11.064;2022-11-06T03:54:57;2.30;99.90
14359;DHT22;7263;49.418;11.064;2022-11-06T03:57:32;2.40;99.90
14359;DHT22;7263;49.418;11.064;2022-11-06T04:00:06;2.50;99.90
14359;DHT22;7263;49.418;11.064;2022-11-06T04:02:35;2.50;99.90
14359;DHT22;7263;49.418;11.064;2022-11-06T04:05:07;2.50;99.90
14359;DHT22;7263;49.418;11.064;2022-11-06T04:10:07;2.40;99.90
14359;DHT22;7263;49.418;11.064;2022-11-06T04:12:54;2.40;99.90
14359;DHT22;7263;49.418;11.064;2022-11-06T04:15:45;2.20;99.90
14359;DHT22;7263;49.418;11.064;2022-11-06T04:18:16;2.10;99.90
14359;DHT22;7263;49.418;11.064;2022-11-06T04:20:49;2.10;99.90
14359;DHT22;7263;49.418;11.064;2022-11-06T04:23:43;2.10;99.90
14359;DHT22;7263;49.418;11.064;2022-11-06T04:26:41;2.10;99.90
14359;DHT22;7263;49.418;11.064;2022-11-06T04:29:17;2.10;99.90
14359;DHT22;7263;49.418;11.064;2022-11-06T04:31:55;2.00;99.90
14359;DHT22;7263;49.418;11.064;2022-11-06T04:34:30;2.00;99.90
14359;DHT22;7263;49.418;11.064;2022-11-06T04:39:30;2.20;99.90
14359;DHT22;7263;49.418;11.064;2022-11-06T04:42:03;2.20;99.90
14359;DHT22;7263;49.418;11.064;2022-11-06T04:47:04;2.20;99.90
14359;DHT22;7263;49.418;11.064;2022-11-06T04:52:01;2.10;99.90
14359;DHT22;7263;49.418;11.064;2022-11-06T04:59:25;2.00;99.90
14359;DHT22;7263;49.418;11.064;2022-11-06T05:01:53;2.00;99.90
14359;DHT22;7263;49.418;11.064;2022-11-06T05:04:21;2.00;99.90
14359;DHT22;7263;49.418;11.064;2022-11-06T05:19:04;2.10;99.90
14359;DHT22;7263;49.418;11.064;2022-11-06T05:21:32;2.20;99.90
14359;DHT22;7263;49.418;11.064;2022-11-06T05:24:17;2.20;99.90
14359;DHT22;7263;49.418;11.064;2022-11-06T05:29:11;2.10;99.90
14359;DHT22;7263;49.418;11.064;2022-11-06T05:34:06;2.00;99.90
14359;DHT22;7263;49.418;11.064;2022-11-06T05:36:34;2.00;99.90
14359;DHT22;7263;49.418;11.064;2022-11-06T05:53:46;1.80;99.90
14359;DHT22;7263;49.418;11.064;2022-11-06T06:10:56;1.60;99.90
14359;DHT22;7263;49.418;11.064;2022-11-06T06:28:07;1.60;99.90
14359;DHT22;7263;49.418;11.064;2022-11-06T06:33:03;1.50;99.90
14359;DHT22;7263;49.418;11.064;2022-11-06T06:45:23;1.80;99.90
14359;DHT22;7263;49.418;11.064;2022-11-06T06:52:44;1.80;99.90
14359;DHT22;7263;49.418;11.064;2022-11-06T07:00:07;2.10;99.90
14359;DHT22;7263;49.418;11.064;2022-11-06T07:02:35;2.00;99.90
14359;DHT22;7263;49.418;11.064;2022-11-06T07:05:02;2.30;99.90
14359;DHT22;7263;49.418;11.064;2022-11-06T07:07:29;2.30;99.90
14359;DHT22;7263;49.418;11.064;2022-11-06T07:36:57;2.70;99.90
14359;DHT22;7263;49.418;11.064;2022-11-06T07:54:09;6.40;99.90
14359;DHT22;7263;49.418;11.064;2022-11-06T07:59:04;3.30;99.90
14359;DHT22;7263;49.418;11.064;2022-11-06T08:06:25;3.40;99.90
14359;DHT22;7263;49.418;11.064;2022-11-06T08:11:20;3.60;99.90
14359;DHT22;7263;49.418;11.064;2022-11-06T08:18:41;4.00;99.90
14359;DHT22;7263;49.418;11.064;2022-11-06T08:26:04;4.20;99.90
14359;DHT22;7263;49.418;11.064;2022-11-06T08:28:33;4.20;99.90
14359;DHT22;7263;49.418;11.064;2022-11-06T08:31:03;4.20;99.90
14359;DHT22;7263;49.418;11.064;2022-11-06T08:36:00;3.60;99.90
14359;DHT22;7263;49.418;11.064;2022-11-06T08:40:54;4.50;99.90
14359;DHT22;7263;49.418;11.064;2022-11-06T08:45:52;4.70;99.90
14359;DHT22;7263;49.418;11.064;2022-11-06T08:48:19;4.80;99.90
14359;DHT22;7263;49.418;11.064;2022-11-06T08:53:13;4.80;99.90
14359;DHT22;7263;49.418;11.064;2022-11-06T08:58:07;5.20;99.90
14359;DHT22;7263;49.418;11.064;2022-11-06T09:03:05;5.40;99.90
14359;DHT22;7263;49.418;11.064;2022-11-06T09:07:59;5.50;99.90
14359;DHT22;7263;49.418;11.064;2022-11-06T09:12:53;5.70;99.90
14359;DHT22;7263;49.418;11.064;2022-11-06T09:17:50;5.90;99.90
14359;DHT22;7263;49.418;11.064;2022-11-06T09:20:20;6.00;99.90
14359;DHT22;7263;49.418;11.064;2022-11-06T09:22:48;6.10;99.90
14359;DHT22;7263;49.418;11.064;2022-11-06T09:27:42;6.30;99.90
14359;DHT22;7263;49.418;11.064;2022-11-06T09:30:11;6.40;99.90
14359;DHT22;7263;49.418;11.064;2022-11-06T09:32:39;6.50;99.90
14359;DHT22;7263;49.418;11.064;2022-11-06T09:40:06;6.60;99.90
14359;DHT22;7263;49.418;11.064;2022-11-06T09:42:40;6.50;99.90
14359;DHT22;7263;49.418;11.064;2022-11-06T09:45:15;6.50;99.90
14359;DHT22;7263;49.418;11.064;2022-11-06T09:47:46;6.50;99.90
14359;DHT22;7263;49.418;11.064;2022-11-06T09:50:16;6.50;99.90
14359;DHT22;7263;49.418;11.064;2022-11-06T09:52:50;6.50;99.90
14359;DHT22;7263;49.418;11.064;2022-11-06T09:55:21;6.50;99.90
14359;DHT22;7263;49.418;11.064;2022-11-06T09:57:52;6.60;99.90
14359;DHT22;7263;49.418;11.064;2022-11-06T10:00:21;6.40;99.90
14359;DHT22;7263;49.418;11.064;2022-11-06T10:02:50;6.70;99.90
14359;DHT22;7263;49.418;11.064;2022-11-06T10:05:23;6.70;99.90
14359;DHT22;7263;49.418;11.064;2022-11-06T10:07:54;6.70;99.90
14359;DHT22;7263;49.418;11.064;2022-11-06T10:10:27;6.60;99.90
14359;DHT22;7263;49.418;11.064;2022-11-06T10:13:13;6.60;99.90
14359;DHT22;7263;49.418;11.064;2022-11-06T10:15:47;6.60;99.90
14359;DHT22;7263;49.418;11.064;2022-11-06T10:18:23;6.60;99.90
14359;DHT22;7263;49.418;11.064;2022-11-06T10:21:01;6.60;99.90
14359;DHT22;7263;49.418;11.064;2022-11-06T10:23:35;6.60;99.90
14359;DHT22;7263;49.418;11.064;2022-11-06T10:26:14;6.70;99.90
14359;DHT22;7263;49.418;11.064;2022-11-06T10:28:59;6.70;99.90
14359;DHT22;7263;49.418;11.064;2022-11-06T10:31:35;6.80;99.90
14359;DHT22;7263;49.418;11.064;2022-11-06T10:34:07;6.90;99.90
14359;DHT22;7263;49.418;11.064;2022-11-06T10:36:38;6.90;99.90
14359;DHT22;7263;49.418;11.064;2022-11-06T10:39:14;6.80;99.90
14359;DHT22;7263;49.418;11.064;2022-11-06T10:41:48;6.90;99.90
14359;DHT22;7263;49.418;11.064;2022-11-06T10:44:21;8.10;99.90
14359;DHT22;7263;49.418;11.064;2022-11-06T10:46:52;6.90;99.90
14359;DHT22;7263;49.418;11.064;2022-11-06T10:49:29;6.90;99.90
14359;DHT22;7263;49.418;11.064;2022-11-06T10:52:20;6.90;99.90
14359;DHT22;7263;49.418;11.064;2022-11-06T10:55:07;6.90;99.90
14359;DHT22;7263;49.418;11.064;2022-11-06T10:57:43;6.90;99.90
14359;DHT22;7263;49.418;11.064;2022-11-06T11:00:14;6.90;99.90
14359;DHT22;7263;49.418;11.064;2022-11-06T11:02:44;6.80;99.90
14359;DHT22;7263;49.418;11.064;2022-11-06T11:05:13;6.70;99.90
14359;DHT22;7263;49.418;11.064;2022-11-06T11:07:42;6.80;99.90
14359;DHT22;7263;49.418;11.064;2022-11-06T11:10:30;6.60;99.90
14359;DHT22;7263;49.418;11.064;2022-11-06T11:13:00;6.80;99.90
14359;DHT22;7263;49.418;11.064;2022-11-06T11:15:30;6.90;99.90
14359;DHT22;7263;49.418;11.064;2022-11-06T11:18:14;6.90;99.90
14359;DHT22;7263;49.418;11.064;2022-11-06T11:20:43;7.00;99.90
14359;DHT22;7263;49.418;11.064;2022-11-06T11:23:16;7.00;99.90
14359;DHT22;7263;49.418;11.064;2022-11-06T11:25:45;7.10;99.90
14359;DHT22;7263;49.418;11.064;2022-11-06T11:28:27;7.20;99.90
14359;DHT22;7263;49.418;11.064;2022-11-06T11:31:04;7.20;99.90
14359;DHT22;7263;49.418;11.064;2022-11-06T11:35:59;7.20;99.90
14359;DHT22;7263;49.418;11.064;2022-11-06T11:38:27;7.30;99.90
14359;DHT22;7263;49.418;11.064;2022-11-06T11:41:05;7.30;99.90
14359;DHT22;7263;49.418;11.064;2022-11-06T11:43:34;7.40;99.90
14359;DHT22;7263;49.418;11.064;2022-11-06T11:46:16;7.50;99.90
14359;DHT22;7263;49.418;11.064;2022-11-06T11:48:45;7.70;99.90
14359;DHT22;7263;49.418;11.064;2022-11-06T11:51:24;7.80;99.90
14359;DHT22;7263;49.418;11.064;2022-11-06T11:53:53;7.80;99.90
14359;DHT22;7263;49.418;11.064;2022-11-06T11:58:51;7.80;99.90
14359;DHT22;7263;49.418;11.064;2022-11-06T12:01:31;7.90;99.90
14359;DHT22;7263;49.418;11.064;2022-11-06T12:03:59;8.10;99.90
14359;DHT22;7263;49.418;11.064;2022-11-06T12:08:54;8.00;99.90
14359;DHT22;7263;49.418;11.064;2022-11-06T12:11:24;8.10;99.90
14359;DHT22;7263;49.418;11.064;2022-11-06T12:17:03;8.10;99.90
14359;DHT22;7263;49.418;11.064;2022-11-06T12:19:32;8.20;99.90
14359;DHT22;7263;49.418;11.064;2022-11-06T12:22:05;8.20;99.90
14359;DHT22;7263;49.418;11.064;2022-11-06T12:24:38;8.30;99.90
14359;DHT22;7263;49.418;11.064;2022-11-06T12:27:11;8.30;99.90
14359;DHT22;7263;49.418;11.064;2022-11-06T12:29:41;8.40;99.90
14359;DHT22;7263;49.418;11.064;2022-11-06T12:32:23;8.50;99.90
14359;DHT22;7263;49.418;11.064;2022-11-06T12:34:56;8.50;99.90
14359;DHT22;7263;49.418;11.064;2022-11-06T12:37:32;8.50;99.90
14359;DHT22;7263;49.418;11.064;2022-11-06T12:40:19;8.70;99.90
14359;DHT22;7263;49.418;11.064;2022-11-06T12:43:04;8.60;99.90
14359;DHT22;7263;49.418;11.064;2022-11-06T12:45:46;8.50;99.90
14359;DHT22;7263;49.418;11.064;2022-11-06T12:48:30;8.50;99.90
14359;DHT22;7263;49.418;11.064;2022-11-06T12:51:02;8.40;99.90
14359;DHT22;7263;49.418;11.064;2022-11-06T12:53:40;8.40;99.90
14359;DHT22;7263;49.418;11.064;2022-11-06T12:56:16;8.40;99.90
14359;DHT22;7263;49.418;11.064;2022-11-06T12:58:57;8.40;99.90
14359;DHT22;7263;49.418;11.064;2022-11-06T13:01:45;8.30;99.90
14359;DHT22;7263;49.418;11.064;2022-11-06T13:04:32;8.30;99.90
14359;DHT22;7263;49.418;11.064;2022-11-06T13:10:19;8.10;99.90
14359;DHT22;7263;49.418;11.064;2022-11-06T13:13:09;8.20;99.90
14359;DHT22;7263;49.418;11.064;2022-11-06T13:15:45;8.20;99.90
14359;DHT22;7263;49.418;11.064;2022-11-06T13:18:16;8.20;99.90
14359;DHT22;7263;49.418;11.064;2022-11-06T13:20:51;8.10;99.90
14359;DHT22;7263;49.418;11.064;2022-11-06T13:23:25;8.20;99.90
14359;DHT22;7263;49.418;11.064;2022-11-06T13:26:00;8.10;99.90
14359;DHT22;7263;49.418;11.064;2022-11-06T13:28:31;8.10;99.90
14359;DHT22;7263;49.418;11.064;2022-11-06T13:31:02;8.10;99.90
14359;DHT22;7263;49.418;11.064;2022-11-06T13:33:35;8.00;99.90
14359;DHT22;7263;49.418;11.064;2022-11-06T13:36:05;8.00;99.90
14359;DHT22;7263;49.418;11.064;2022-11-06T13:38:36;7.90;99.90
14359;DHT22;7263;49.418;11.064;2022-11-06T13:41:06;7.90;99.90
14359;DHT22;7263;49.418;11.064;2022-11-06T13:43:41;7.90;99.90
14359;DHT22;7263;49.418;11.064;2022-11-06T13:46:17;7.80;99.90
14359;DHT22;7263;49.418;11.064;2022-11-06T13:48:51;7.80;99.90
14359;DHT22;7263;49.418;11.064;2022-11-06T13:51:28;7.80;99.90
14359;DHT22;7263;49.418;11.064;2022-11-06T13:54:01;7.80;99.90
14359;DHT22;7263;49.418;11.064;2022-11-06T13:57:00;7.80;99.90
14359;DHT22;7263;49.418;11.064;2022-11-06T14:00:02;7.90;99.90
14359;DHT22;7263;49.418;11.064;2022-11-06T14:02:51;7.90;99.90
14359;DHT22;7263;49.418;11.064;2022-11-06T14:05:44;7.90;99.90
14359;DHT22;7263;49.418;11.064;2022-11-06T14:08:15;7.90;99.90
14359;DHT22;7263;49.418;11.064;2022-11-06T14:10:53;7.90;99.90
14359;DHT22;7263;49.418;11.064;2022-11-06T14:13:26;7.90;99.90
14359;DHT22;7263;49.418;11.064;2022-11-06T14:16:05;8.00;99.90
14359;DHT22;7263;49.418;11.064;2022-11-06T14:18:33;8.00;99.90
14359;DHT22;7263;49.418;11.064;2022-11-06T14:26:59;8.00;99.90
14359;DHT22;7263;49.418;11.064;2022-11-06T14:29:55;8.00;99.90
14359;DHT22;7263;49.418;11.064;2022-11-06T14:32:37;7.90;99.90
14359;DHT22;7263;49.418;11.064;2022-11-06T14:41:00;7.90;99.90
14359;DHT22;7263;49.418;11.064;2022-11-06T14:43:29;7.90;99.90
14359;DHT22;7263;49.418;11.064;2022-11-06T14:45:59;7.90;99.90
14359;DHT22;7263;49.418;11.064;2022-11-06T14:48:29;7.90;99.90
14359;DHT22;7263;49.418;11.064;2022-11-06T14:50:58;7.90;99.90
14359;DHT22;7263;49.418;11.064;2022-11-06T14:53:30;7.80;99.90
14359;DHT22;7263;49.418;11.064;2022-11-06T14:56:00;7.80;99.90
14359;DHT22;7263;49.418;11.064;2022-11-06T14:58:31;7.80;99.90
14359;DHT22;7263;49.418;11.064;2022-11-06T15:01:01;7.80;99.90
14359;DHT22;7263;49.418;11.064;2022-11-06T15:03:33;7.80;99.90
14359;DHT22;7263;49.418;11.064;2022-11-06T15:06:05;7.80;99.90
14359;DHT22;7263;49.418;11.064;2022-11-06T15:08:52;7.70;99.90
14359;DHT22;7263;49.418;11.064;2022-11-06T15:11:53;7.70;99.90
14359;DHT22;7263;49.418;11.064;2022-11-06T15:14:58;7.70;99.90
14359;DHT22;7263;49.418;11.064;2022-11-06T15:17:31;7.60;99.90
14359;DHT22;7263;49.418;11.064;2022-11-06T15:20:13;7.60;99.90
14359;DHT22;7263;49.418;11.064;2022-11-06T15:22:46;7.50;99.90
14359;DHT22;7263;49.418;11.064;2022-11-06T15:25:21;7.50;99.90
14359;DHT22;7263;49.418;11.064;2022-11-06T15:27:57;7.50;99.90
14359;DHT22;7263;49.418;11.064;2022-11-06T15:30:25;9.90;99.90
14359;DHT22;7263;49.418;11.064;2022-11-06T15:32:54;8.00;99.90
14359;DHT22;7263;49.418;11.064;2022-11-06T15:35:22;7.30;99.90
14359;DHT22;7263;49.418;11.064;2022-11-06T15:37:53;7.30;99.90
14359;DHT22;7263;49.418;11.064;2022-11-06T15:40:24;7.20;99.90
14359;DHT22;7263;49.418;11.064;2022-11-06T15:42:53;7.10;99.90
14359;DHT22;7263;49.418;11.064;2022-11-06T15:45:23;7.00;99.90
14359;DHT22;7263;49.418;11.064;2022-11-06T15:47:56;7.00;99.90
14359;DHT22;7263;49.418;11.064;2022-11-06T15:50:25;6.90;99.90
14359;DHT22;7263;49.418;11.064;2022-11-06T15:55:28;6.70;99.90
14359;DHT22;7263;49.418;11.064;2022-11-06T15:58:06;6.50;99.90
14359;DHT22;7263;49.418;11.064;2022-11-06T16:00:34;6.60;99.90
14359;DHT22;7263;49.418;11.064;2022-11-06T16:03:04;6.60;99.90
14359;DHT22;7263;49.418;11.064;2022-11-06T16:05:33;6.60;99.90
14359;DHT22;7263;49.418;11.064;2022-11-06T16:08:00;6.50;99.90
14359;DHT22;7263;49.418;11.064;2022-11-06T16:10:28;7.90;99.90
14359;DHT22;7263;49.418;11.064;2022-11-06T16:12:56;6.40;99.90
14359;DHT22;7263;49.418;11.064;2022-11-06T16:15:47;6.40;99.90
14359;DHT22;7263;49.418;11.064;2022-11-06T16:18:17;5.70;99.90
14359;DHT22;7263;49.418;11.064;2022-11-06T16:20:47;6.40;99.90
14359;DHT22;7263;49.418;11.064;2022-11-06T16:23:17;10.60;99.90
14359;DHT22;7263;49.418;11.064;2022-11-06T16:25:45;6.10;99.90
14359;DHT22;7263;49.418;11.064;2022-11-06T16:28:16;6.20;99.90
14359;DHT22;7263;49.418;11.064;2022-11-06T16:30:44;6.10;99.90
14359;DHT22;7263;49.418;11.064;2022-11-06T16:33:19;6.10;99.90
14359;DHT22;7263;49.418;11.064;2022-11-06T16:35:48;6.10;99.90
14359;DHT22;7263;49.418;11.064;2022-11-06T16:38:33;6.10;99.90
14359;DHT22;7263;49.418;11.064;2022-11-06T16:45:56;6.00;99.90
14359;DHT22;7263;49.418;11.064;2022-11-06T16:48:36;6.00;99.90
14359;DHT22;7263;49.418;11.064;2022-11-06T16:51:13;5.90;99.90
14359;DHT22;7263;49.418;11.064;2022-11-06T16:53:48;5.90;99.90
14359;DHT22;7263;49.418;11.064;2022-11-06T16:56:21;5.30;99.90
14359;DHT22;7263;49.418;11.064;2022-11-06T16:58:51;5.70;99.90
14359;DHT22;7263;49.418;11.064;2022-11-06T17:03:49;5.80;99.90
14359;DHT22;7263;49.418;11.064;2022-11-06T17:06:21;5.70;99.90
14359;DHT22;7263;49.418;11.064;2022-11-06T17:09:05;5.70;99.90
14359;DHT22;7263;49.418;11.064;2022-11-06T17:14:09;5.60;99.90
14359;DHT22;7263;49.418;11.064;2022-11-06T17:16:44;5.50;99.90
14359;DHT22;7263;49.418;11.064;2022-11-06T17:19:14;5.50;99.90
14359;DHT22;7263;49.418;11.064;2022-11-06T17:26:37;5.60;99.90
14359;DHT22;7263;49.418;11.064;2022-11-06T17:34:00;5.60;99.90
14359;DHT22;7263;49.418;11.064;2022-11-06T17:36:29;5.60;99.90
14359;DHT22;7263;49.418;11.064;2022-11-06T17:41:25;5.60;99.90
14359;DHT22;7263;49.418;11.064;2022-11-06T17:43:59;5.60;99.90
14359;DHT22;7263;49.418;11.064;2022-11-06T17:46:28;5.60;99.90
14359;DHT22;7263;49.418;11.064;2022-11-06T17:54:09;5.70;99.90
14359;DHT22;7263;49.418;11.064;2022-11-06T17:56:37;5.60;99.90
14359;DHT22;7263;49.418;11.064;2022-11-06T17:59:04;5.70;99.90
14359;DHT22;7263;49.418;11.064;2022-11-06T18:08:56;5.50;99.90
14359;DHT22;7263;49.418;11.064;2022-11-06T18:11:24;5.50;99.90
14359;DHT22;7263;49.418;11.064;2022-11-06T18:16:20;5.50;99.90
14359;DHT22;7263;49.418;11.064;2022-11-06T18:26:09;5.50;99.90
14359;DHT22;7263;49.418;11.064;2022-11-06T18:28:37;5.50;99.90
14359;DHT22;7263;49.418;11.064;2022-11-06T18:31:05;5.60;99.90
14359;DHT22;7263;49.418;11.064;2022-11-06T18:33:32;5.60;99.90
14359;DHT22;7263;49.418;11.064;2022-11-06T18:35:59;5.70;99.90
14359;DHT22;7263;49.418;11.064;2022-11-06T18:40:54;5.70;99.90
14359;DHT22;7263;49.418;11.064;2022-11-06T18:45:50;5.60;99.90
14359;DHT22;7263;49.418;11.064;2022-11-06T18:48:17;5.60;99.90
14359;DHT22;7263;49.418;11.064;2022-11-06T19:01:28;5.70;99.90
14359;DHT22;7263;49.418;11.064;2022-11-06T19:11:17;5.60;99.90
14359;DHT22;7263;49.418;11.064;2022-11-06T19:13:44;5.60;99.90
14359;DHT22;7263;49.418;11.064;2022-11-06T19:18:40;5.60;99.90
14359;DHT22;7263;49.418;11.064;2022-11-06T19:21:08;5.70;99.90
14359;DHT22;7263;49.418;11.064;2022-11-06T19:23:36;5.70;99.90
14359;DHT22;7263;49.418;11.064;2022-11-06T19:26:06;5.80;99.90
14359;DHT22;7263;49.418;11.064;2022-11-06T19:35:58;5.90;99.90
14359;DHT22;7263;49.418;11.064;2022-11-06T19:38:25;5.90;99.90
14359;DHT22;7263;49.418;11.064;2022-11-06T19:40:53;5.90;99.90
14359;DHT22;7263;49.418;11.064;2022-11-06T19:43:20;5.90;99.90
14359;DHT22;7263;49.418;11.064;2022-11-06T19:50:44;6.10;99.90
14359;DHT22;7263;49.418;11.064;2022-11-06T19:53:16;6.10;99.90
14359;DHT22;7263;49.418;11.064;2022-11-06T20:03:05;6.20;99.90
14359;DHT22;7263;49.418;11.064;2022-11-06T20:05:32;6.30;99.90
14359;DHT22;7263;49.418;11.064;2022-11-06T20:10:28;6.30;99.90
14359;DHT22;7263;49.418;11.064;2022-11-06T20:20:16;6.40;99.90
14359;DHT22;7263;49.418;11.064;2022-11-06T20:25:10;7.00;99.90
14359;DHT22;7263;49.418;11.064;2022-11-06T20:27:39;6.50;99.90
14359;DHT22;7263;49.418;11.064;2022-11-06T20:30:07;6.60;99.90
14359;DHT22;7263;49.418;11.064;2022-11-06T20:35:02;6.60;99.90
14359;DHT22;7263;49.418;11.064;2022-11-06T20:42:24;6.60;99.90
14359;DHT22;7263;49.418;11.064;2022-11-06T20:44:52;6.50;99.90
14359;DHT22;7263;49.418;11.064;2022-11-06T21:02:03;6.60;99.90
14359;DHT22;7263;49.418;11.064;2022-11-06T21:04:30;6.60;99.90
14359;DHT22;7263;49.418;11.064;2022-11-06T21:19:14;6.60;99.90
14359;DHT22;7263;49.418;11.064;2022-11-06T21:26:36;6.80;99.90
14359;DHT22;7263;49.418;11.064;2022-11-06T21:29:05;6.80;99.90
14359;DHT22;7263;49.418;11.064;2022-11-06T21:34:00;6.80;99.90
14359;DHT22;7263;49.418;11.064;2022-11-06T21:36:30;7.00;99.90
14359;DHT22;7263;49.418;11.064;2022-11-06T21:38:59;7.00;99.90
14359;DHT22;7263;49.418;11.064;2022-11-06T21:41:28;7.10;99.90
14359;DHT22;7263;49.418;11.064;2022-11-06T21:51:18;7.10;99.90
14359;DHT22;7263;49.418;11.064;2022-11-06T21:56:31;7.20;99.90
14359;DHT22;7263;49.418;11.064;2022-11-06T21:59:00;7.20;99.90
14359;DHT22;7263;49.418;11.064;2022-11-06T22:01:27;7.20;99.90
14359;DHT22;7263;49.418;11.064;2022-11-06T22:06:24;7.10;99.90
14359;DHT22;7263;49.418;11.064;2022-11-06T22:08:54;7.20;99.90
14359;DHT22;7263;49.418;11.064;2022-11-06T22:11:23;7.20;99.90
14359;DHT22;7263;49.418;11.064;2022-11-06T22:13:51;7.20;99.90
14359;DHT22;7263;49.418;11.064;2022-11-06T22:16:20;7.30;99.90
14359;DHT22;7263;49.418;11.064;2022-11-06T22:21:16;7.30;99.90
14359;DHT22;7263;49.418;11.064;2022-11-06T22:23:43;7.40;99.90
14359;DHT22;7263;49.418;11.064;2022-11-06T22:26:13;7.50;99.90
14359;DHT22;7263;49.418;11.064;2022-11-06T22:28:41;7.40;99.90
14359;DHT22;7263;49.418;11.064;2022-11-06T22:31:09;7.40;99.90
14359;DHT22;7263;49.418;11.064;2022-11-06T22:33:36;7.50;99.90
14359;DHT22;7263;49.418;11.064;2022-11-06T22:36:04;7.50;99.90
14359;DHT22;7263;49.418;11.064;2022-11-06T22:41:00;7.40;99.90
14359;DHT22;7263;49.418;11.064;2022-11-06T22:43:30;7.40;99.90
14359;DHT22;7263;49.418;11.064;2022-11-06T22:45:57;7.40;99.90
14359;DHT22;7263;49.418;11.064;2022-11-06T22:53:19;7.50;99.90
14359;DHT22;7263;49.418;11.064;2022-11-06T22:58:13;7.50;99.90
14359;DHT22;7263;49.418;11.064;2022-11-06T23:00:41;7.50;99.90
14359;DHT22;7263;49.418;11.064;2022-11-06T23:05:38;7.40;99.90
14359;DHT22;7263;49.418;11.064;2022-11-06T23:08:05;7.40;99.90
14359;DHT22;7263;49.418;11.064;2022-11-06T23:10:32;7.40;99.90
14359;DHT22;7263;49.418;11.064;2022-11-06T23:13:01;7.40;99.90
14359;DHT22;7263;49.418;11.064;2022-11-06T23:15:28;7.40;99.90
14359;DHT22;7263;49.418;11.064;2022-11-06T23:17:56;7.40;99.90
14359;DHT22;7263;49.418;11.064;2022-11-06T23:20:23;7.40;99.90
14359;DHT22;7263;49.418;11.064;2022-11-06T23:22:51;7.40;99.90
14359;DHT22;7263;49.418;11.064;2022-11-06T23:27:46;7.30;99.90
14359;DHT22;7263;49.418;11.064;2022-11-06T23:32:41;7.20;99.90
14359;DHT22;7263;49.418;11.064;2022-11-06T23:35:11;7.30;99.90
14359;DHT22;7263;49.418;11.064;2022-11-06T23:37:39;7.50;99.90
14359;DHT22;7263;49.418;11.064;2022-11-06T23:40:07;7.30;99.90
14359;DHT22;7263;49.418;11.064;2022-11-06T23:45:02;7.40;99.90
14359;DHT22;7263;49.418;11.064;2022-11-06T23:47:48;7.40;99.90
14359;DHT22;7263;49.418;11.064;2022-11-06T23:50:17;7.40;99.90
